Time;durP1;ratioP1;P1;durP2;ratioP2;P2;SDS_P1;SDS_P2;PMS_P1;PMS_P2;Temp;Humidity;BMP_temperature;BMP_pressure;BME280_temperature;BME280_humidity;BME280_pressure;Samples;Min_cycle;Max_cycle;Signal;HPM_P1;HPM_P2
2022/03/30 00:01:36;;;;;;;;;;;12.90;96.00;;;;;;4286523;33;42647;-88
2022/03/30 00:04:03;;;;;;;;;;;12.90;96.20;;;;;;4286660;33;43846;-88
2022/03/30 00:06:30;;;;;;;;;;;12.80;96.40;;;;;;4287955;33;44795;-88
2022/03/30 00:08:57;;;;;;;;;;;12.80;96.30;;;;;;4286459;33;43480;-88
2022/03/30 00:11:24;;;;;;;;;;;12.80;96.20;;;;;;4287554;33;44698;-87
2022/03/30 00:13:51;;;;;;;;;;;12.80;96.10;;;;;;4298418;33;44051;-88
2022/03/30 00:16:19;;;;;;;;;;;12.80;96.40;;;;;;4287116;33;42787;-88
2022/03/30 00:18:46;;;;;;;;;;;12.80;96.20;;;;;;4286331;33;43536;-87
2022/03/30 00:21:14;;;;;;;;;;;12.80;96.20;;;;;;4287907;33;43925;-87
2022/03/30 00:23:41;;;;;;;;;;;12.70;96.10;;;;;;4286369;33;42803;-87
2022/03/30 00:26:08;;;;;;;;;;;12.70;96.40;;;;;;4286333;33;43228;-87
2022/03/30 00:28:35;;;;;;;;;;;12.70;96.20;;;;;;4286269;33;43585;-87
2022/03/30 00:31:02;;;;;;;;;;;12.70;96.10;;;;;;4287273;33;43319;-86
2022/03/30 00:33:29;;;;;;;;;;;12.70;96.20;;;;;;4287263;33;44130;-87
2022/03/30 00:35:56;;;;;;;;;;;12.70;96.20;;;;;;4286638;33;43777;-86
2022/03/30 00:38:23;;;;;;;;;;;12.70;96.20;;;;;;4287832;33;20419;-86
2022/03/30 00:40:50;;;;;;;;;;;12.70;96.60;;;;;;4287184;33;44310;-86
2022/03/30 00:43:17;;;;;;;;;;;12.70;96.80;;;;;;4286534;33;44174;-86
2022/03/30 00:45:45;;;;;;;;;;;12.70;96.40;;;;;;4287611;33;43870;-86
2022/03/30 00:48:12;;;;;;;;;;;12.70;96.50;;;;;;4287230;33;43420;-87
2022/03/30 00:50:39;;;;;;;;;;;12.70;96.50;;;;;;4287400;33;42574;-86
2022/03/30 00:53:06;;;;;;;;;;;12.70;96.50;;;;;;4287090;33;42357;-87
2022/03/30 00:55:34;;;;;;;;;;;12.60;96.70;;;;;;4286093;33;43501;-87
2022/03/30 00:58:01;;;;;;;;;;;12.60;96.90;;;;;;4286324;33;44222;-87
2022/03/30 01:00:29;;;;;;;;;;;12.60;96.90;;;;;;4287376;33;43754;-86
2022/03/30 01:02:56;;;;;;;;;;;12.60;97.20;;;;;;4285591;33;44093;-86
2022/03/30 01:05:23;;;;;;;;;;;12.60;97.00;;;;;;4287186;33;44243;-87
2022/03/30 01:07:50;;;;;;;;;;;12.50;96.90;;;;;;4287186;33;44946;-87
2022/03/30 01:10:18;;;;;;;;;;;12.50;96.90;;;;;;4285772;33;43859;-87
2022/03/30 01:12:46;;;;;;;;;;;12.50;97.10;;;;;;4286711;33;43476;-87
2022/03/30 01:15:14;;;;;;;;;;;12.50;97.10;;;;;;4285645;33;43202;-87
2022/03/30 01:17:41;;;;;;;;;;;12.50;97.20;;;;;;4297657;33;44011;-87
2022/03/30 01:20:10;;;;;;;;;;;12.50;97.10;;;;;;4287119;33;44000;-87
2022/03/30 01:22:38;;;;;;;;;;;12.50;97.00;;;;;;4287047;33;43475;-87
2022/03/30 01:25:06;;;;;;;;;;;12.50;97.10;;;;;;4286961;33;43208;-87
2022/03/30 01:27:33;;;;;;;;;;;12.50;97.10;;;;;;4286143;33;43227;-87
2022/03/30 01:32:55;;;;;;;;;;;12.40;97.30;;;;;;4286582;33;43072;-86
2022/03/30 01:35:22;;;;;;;;;;;12.50;97.50;;;;;;4286534;33;43345;-87
2022/03/30 01:37:49;;;;;;;;;;;12.50;97.30;;;;;;4286678;33;44093;-87
2022/03/30 01:40:17;;;;;;;;;;;12.40;97.00;;;;;;4285785;33;45692;-87
2022/03/30 01:42:44;;;;;;;;;;;12.40;97.20;;;;;;4287031;33;44184;-87
2022/03/30 01:45:15;;;;;;;;;;;12.40;97.10;;;;;;4286969;33;44192;-87
2022/03/30 01:48:08;;;;;;;;;;;12.40;97.00;;;;;;4286086;33;43875;-87
2022/03/30 01:50:36;;;;;;;;;;;12.40;97.20;;;;;;4283275;33;43460;-87
2022/03/30 01:53:04;;;;;;;;;;;12.40;97.10;;;;;;4286899;33;42901;-87
2022/03/30 01:55:31;;;;;;;;;;;12.40;97.30;;;;;;4287002;33;43183;-87
2022/03/30 01:57:59;;;;;;;;;;;12.40;97.50;;;;;;4286840;33;44220;-87
2022/03/30 02:00:26;;;;;;;;;;;12.40;97.30;;;;;;4286521;33;44653;-87
2022/03/30 02:02:54;;;;;;;;;;;12.30;97.30;;;;;;4285386;33;43371;-87
2022/03/30 02:05:21;;;;;;;;;;;12.40;97.30;;;;;;4286756;33;42676;-87
2022/03/30 02:07:48;;;;;;;;;;;12.40;97.30;;;;;;4285331;33;43057;-87
2022/03/30 02:10:16;;;;;;;;;;;12.30;97.30;;;;;;4286781;33;42689;-87
2022/03/30 02:12:43;;;;;;;;;;;12.30;97.40;;;;;;4286378;33;45241;-87
2022/03/30 02:15:11;;;;;;;;;;;12.30;97.40;;;;;;4286514;33;42457;-87
2022/03/30 02:17:38;;;;;;;;;;;12.30;97.20;;;;;;4286670;33;43914;-86
2022/03/30 02:20:06;;;;;;;;;;;12.30;97.30;;;;;;4286182;33;44590;-87
2022/03/30 02:22:33;;;;;;;;;;;12.30;97.30;;;;;;4286660;33;44268;-87
2022/03/30 02:25:00;;;;;;;;;;;12.30;97.20;;;;;;4286602;33;44565;-87
2022/03/30 02:27:27;;;;;;;;;;;12.30;97.20;;;;;;4286174;33;43296;-87
2022/03/30 02:29:55;;;;;;;;;;;12.30;97.20;;;;;;4286374;33;44926;-87
2022/03/30 02:32:22;;;;;;;;;;;12.30;97.30;;;;;;4286226;33;44315;-87
2022/03/30 02:34:49;;;;;;;;;;;12.20;97.10;;;;;;4285199;33;42623;-87
2022/03/30 02:37:16;;;;;;;;;;;12.20;97.10;;;;;;4285575;33;44732;-87
2022/03/30 02:39:44;;;;;;;;;;;12.20;96.90;;;;;;4287591;33;44173;-88
2022/03/30 02:42:11;;;;;;;;;;;12.20;97.00;;;;;;4287845;33;43047;-87
2022/03/30 02:44:38;;;;;;;;;;;12.20;96.70;;;;;;4288782;33;42275;-87
2022/03/30 02:47:05;;;;;;;;;;;12.20;96.70;;;;;;4287625;33;43536;-87
2022/03/30 02:49:32;;;;;;;;;;;12.20;96.70;;;;;;4288974;33;43103;-87
2022/03/30 02:51:59;;;;;;;;;;;12.20;96.60;;;;;;4288998;33;42459;-86
2022/03/30 02:54:26;;;;;;;;;;;12.20;96.60;;;;;;4287762;33;44226;-86
2022/03/30 02:56:54;;;;;;;;;;;12.20;96.80;;;;;;4288700;33;43248;-87
2022/03/30 02:59:21;;;;;;;;;;;12.20;96.60;;;;;;4287392;33;44659;-86
2022/03/30 03:01:48;;;;;;;;;;;12.20;96.60;;;;;;4287335;33;43813;-86
2022/03/30 03:04:16;;;;;;;;;;;12.20;96.70;;;;;;4288878;33;43261;-86
2022/03/30 03:06:43;;;;;;;;;;;12.20;96.60;;;;;;4287724;33;44236;-86
2022/03/30 03:09:10;;;;;;;;;;;12.20;96.60;;;;;;4288240;33;43533;-86
2022/03/30 03:11:37;;;;;;;;;;;12.20;96.50;;;;;;4288369;33;44129;-86
2022/03/30 03:14:07;;;;;;;;;;;12.20;96.50;;;;;;4299910;33;43914;-86
2022/03/30 03:16:34;;;;;;;;;;;12.20;96.40;;;;;;4287473;33;44077;-86
2022/03/30 03:19:02;;;;;;;;;;;12.20;96.20;;;;;;4288200;33;44026;-86
2022/03/30 03:21:29;;;;;;;;;;;12.20;96.30;;;;;;4287083;33;43040;-86
2022/03/30 03:23:56;;;;;;;;;;;12.10;96.20;;;;;;4288450;33;43642;-86
2022/03/30 03:26:23;;;;;;;;;;;12.10;96.30;;;;;;4287506;33;44863;-86
2022/03/30 03:28:51;;;;;;;;;;;12.10;96.20;;;;;;4287214;33;42752;-86
2022/03/30 03:31:18;;;;;;;;;;;12.10;96.10;;;;;;4288285;33;43916;-86
2022/03/30 03:33:45;;;;;;;;;;;12.10;96.10;;;;;;4287328;33;45805;-86
2022/03/30 03:36:12;;;;;;;;;;;12.10;96.00;;;;;;4286908;33;43406;-86
2022/03/30 03:38:39;;;;;;;;;;;12.10;96.00;;;;;;4287381;33;44080;-86
2022/03/30 03:41:06;;;;;;;;;;;12.00;95.80;;;;;;4286980;33;44202;-86
2022/03/30 03:43:34;;;;;;;;;;;12.10;96.00;;;;;;4287028;33;43078;-86
2022/03/30 03:46:02;;;;;;;;;;;12.00;95.90;;;;;;4287216;33;43251;-86
2022/03/30 03:48:29;;;;;;;;;;;12.00;95.80;;;;;;4287694;33;44852;-86
2022/03/30 03:50:57;;;;;;;;;;;12.00;95.70;;;;;;4287174;33;43153;-86
2022/03/30 03:53:24;;;;;;;;;;;12.00;95.70;;;;;;4287867;33;43986;-86
2022/03/30 03:55:51;;;;;;;;;;;12.00;95.70;;;;;;4287879;33;42696;-86
2022/03/30 03:58:18;;;;;;;;;;;12.00;95.70;;;;;;4287628;33;42615;-86
2022/03/30 04:00:45;;;;;;;;;;;12.00;95.80;;;;;;4287596;33;43377;-86
2022/03/30 04:03:13;;;;;;;;;;;12.00;95.70;;;;;;4286520;33;43812;-86
2022/03/30 04:05:40;;;;;;;;;;;11.90;95.60;;;;;;4286745;33;44021;-86
2022/03/30 04:08:08;;;;;;;;;;;11.90;95.80;;;;;;4287614;33;42480;-86
2022/03/30 04:10:35;;;;;;;;;;;11.90;95.80;;;;;;4287455;33;42783;-86
2022/03/30 04:13:06;;;;;;;;;;;11.90;95.80;;;;;;4287511;33;43329;-86
2022/03/30 04:15:34;;;;;;;;;;;11.90;95.80;;;;;;4286983;33;42594;-86
2022/03/30 04:18:03;;;;;;;;;;;11.90;95.80;;;;;;4287475;33;43316;-86
2022/03/30 04:20:31;;;;;;;;;;;11.90;95.70;;;;;;4287448;33;44153;-85
2022/03/30 04:22:58;;;;;;;;;;;11.80;95.70;;;;;;4287603;33;42588;-86
2022/03/30 04:25:26;;;;;;;;;;;11.90;95.80;;;;;;4286721;33;44201;-86
2022/03/30 04:27:53;;;;;;;;;;;11.90;95.50;;;;;;4287570;33;42526;-86
2022/03/30 04:30:21;;;;;;;;;;;11.80;95.50;;;;;;4286501;33;44499;-86
2022/03/30 04:32:49;;;;;;;;;;;11.80;95.60;;;;;;4286288;33;43777;-86
2022/03/30 04:35:18;;;;;;;;;;;11.80;95.60;;;;;;4287328;33;43302;-86
2022/03/30 04:37:45;;;;;;;;;;;11.80;95.70;;;;;;4287573;33;42307;-86
2022/03/30 04:40:12;;;;;;;;;;;11.80;95.70;;;;;;4287171;33;43041;-86
2022/03/30 04:42:39;;;;;;;;;;;11.80;95.40;;;;;;4297933;33;43068;-86
2022/03/30 04:45:06;;;;;;;;;;;11.80;95.60;;;;;;4287453;33;42267;-86
2022/03/30 04:47:33;;;;;;;;;;;11.70;95.50;;;;;;4287013;33;43517;-86
2022/03/30 04:50:01;;;;;;;;;;;11.70;95.40;;;;;;4286469;33;43369;-86
2022/03/30 04:52:28;;;;;;;;;;;11.70;95.40;;;;;;4286480;33;43860;-87
2022/03/30 04:54:55;;;;;;;;;;;11.70;95.20;;;;;;4287208;33;43119;-86
2022/03/30 04:57:22;;;;;;;;;;;11.70;95.30;;;;;;4287254;33;43054;-86
2022/03/30 04:59:49;;;;;;;;;;;11.70;95.30;;;;;;4287052;33;43924;-86
2022/03/30 05:02:16;;;;;;;;;;;11.70;95.30;;;;;;4285750;33;43469;-86
2022/03/30 05:04:43;;;;;;;;;;;11.70;95.30;;;;;;4285816;33;43180;-86
2022/03/30 05:07:10;;;;;;;;;;;11.70;95.20;;;;;;4287244;33;43819;-86
2022/03/30 05:09:37;;;;;;;;;;;11.70;95.50;;;;;;4286837;33;43099;-86
2022/03/30 05:12:05;;;;;;;;;;;11.70;95.30;;;;;;4287085;33;42824;-86
2022/03/30 05:14:35;;;;;;;;;;;11.70;95.40;;;;;;4285754;33;42839;-86
2022/03/30 05:17:02;;;;;;;;;;;11.60;95.30;;;;;;4285760;33;44199;-86
2022/03/30 05:19:30;;;;;;;;;;;11.60;95.40;;;;;;4285643;33;43127;-86
2022/03/30 05:21:56;;;;;;;;;;;11.60;95.30;;;;;;4285848;33;43894;-86
2022/03/30 05:24:24;;;;;;;;;;;11.60;95.20;;;;;;4285996;33;44187;-86
2022/03/30 05:26:53;;;;;;;;;;;11.60;95.20;;;;;;4286095;33;43930;-86
2022/03/30 05:29:20;;;;;;;;;;;11.60;95.20;;;;;;4285533;33;43205;-86
2022/03/30 05:31:47;;;;;;;;;;;11.60;95.30;;;;;;4285999;33;43474;-86
2022/03/30 05:34:34;;;;;;;;;;;11.60;95.30;;;;;;4286942;33;42633;-86
2022/03/30 05:37:01;;;;;;;;;;;11.60;95.20;;;;;;4286960;33;44718;-86
2022/03/30 05:39:29;;;;;;;;;;;11.50;95.30;;;;;;4285821;33;43949;-86
2022/03/30 05:41:57;;;;;;;;;;;11.50;95.30;;;;;;4287079;33;43466;-86
2022/03/30 05:44:24;;;;;;;;;;;11.40;95.40;;;;;;4285602;33;43122;-86
2022/03/30 05:46:51;;;;;;;;;;;11.40;95.60;;;;;;4285855;33;44183;-86
2022/03/30 05:49:18;;;;;;;;;;;11.50;95.60;;;;;;4286940;33;43837;-86
2022/03/30 05:51:45;;;;;;;;;;;11.50;95.70;;;;;;4286764;33;44136;-86
2022/03/30 05:54:13;;;;;;;;;;;11.40;95.70;;;;;;4286704;33;43494;-86
2022/03/30 05:59:34;;;;;;;;;;;11.40;95.70;;;;;;4286839;33;42969;-86
2022/03/30 06:02:02;;;;;;;;;;;11.40;95.50;;;;;;4285586;33;44011;-86
2022/03/30 06:04:29;;;;;;;;;;;11.30;95.50;;;;;;4285225;33;43892;-86
2022/03/30 06:06:57;;;;;;;;;;;11.30;95.70;;;;;;4285171;33;44373;-86
2022/03/30 06:09:24;;;;;;;;;;;11.30;95.90;;;;;;4286598;33;42659;-86
2022/03/30 06:12:07;;;;;;;;;;;11.40;96.00;;;;;;4285777;33;42393;-86
2022/03/30 06:14:34;;;;;;;;;;;11.30;96.00;;;;;;4287831;33;43911;-86
2022/03/30 06:17:04;;;;;;;;;;;11.30;95.90;;;;;;4289123;33;45663;-86
2022/03/30 06:19:32;;;;;;;;;;;11.30;96.10;;;;;;4288086;33;43029;-86
2022/03/30 06:22:00;;;;;;;;;;;11.30;96.20;;;;;;4299903;33;44255;-86
2022/03/30 06:24:27;;;;;;;;;;;11.30;96.20;;;;;;4289326;33;44034;-86
2022/03/30 06:26:54;;;;;;;;;;;11.30;96.10;;;;;;4289394;33;45000;-86
2022/03/30 06:29:22;;;;;;;;;;;11.30;96.20;;;;;;4288163;33;43474;-85
2022/03/30 06:31:49;;;;;;;;;;;11.30;96.10;;;;;;4287820;33;42639;-86
2022/03/30 06:34:16;;;;;;;;;;;11.30;96.30;;;;;;4289201;33;44793;-85
2022/03/30 06:36:44;;;;;;;;;;;11.20;96.20;;;;;;4288039;33;42868;-85
2022/03/30 06:39:11;;;;;;;;;;;11.30;96.40;;;;;;4288647;33;45969;-85
2022/03/30 06:41:39;;;;;;;;;;;11.20;96.40;;;;;;4287690;33;43433;-86
2022/03/30 06:44:06;;;;;;;;;;;11.20;96.30;;;;;;4288054;33;43901;-85
2022/03/30 06:46:37;;;;;;;;;;;11.30;96.20;;;;;;4288645;33;43898;-85
2022/03/30 06:49:05;;;;;;;;;;;11.30;96.30;;;;;;4289359;33;43336;-86
2022/03/30 06:51:32;;;;;;;;;;;11.20;96.20;;;;;;4289064;33;44194;-85
2022/03/30 06:53:59;;;;;;;;;;;11.30;96.10;;;;;;4287893;33;43942;-85
2022/03/30 06:56:26;;;;;;;;;;;11.20;96.10;;;;;;4288497;33;41964;-85
2022/03/30 06:58:54;;;;;;;;;;;11.20;96.00;;;;;;4287841;33;43374;-85
2022/03/30 07:01:21;;;;;;;;;;;11.20;96.40;;;;;;4288862;33;43183;-85
2022/03/30 07:03:50;;;;;;;;;;;11.20;96.20;;;;;;4302435;33;44231;-85
2022/03/30 07:06:17;;;;;;;;;;;11.20;96.10;;;;;;4289814;33;43986;-85
2022/03/30 07:11:30;;;;;;;;;;;11.20;96.10;;;;;;4303372;33;45056;-85
2022/03/30 07:13:58;;;;;;;;;;;11.20;96.10;;;;;;4290318;33;43896;-85
2022/03/30 07:16:25;;;;;;;;;;;11.30;96.00;;;;;;4289612;33;44196;-85
2022/03/30 07:18:53;;;;;;;;;;;11.20;95.80;;;;;;4301466;33;44114;-85
2022/03/30 07:21:21;;;;;;;;;;;11.20;95.90;;;;;;4302590;33;44293;-85
2022/03/30 07:23:48;;;;;;;;;;;11.20;95.80;;;;;;4302968;33;43483;-85
2022/03/30 07:26:15;;;;;;;;;;;11.30;96.00;;;;;;4302669;33;43101;-85
2022/03/30 07:28:42;;;;;;;;;;;11.30;95.80;;;;;;4302417;33;46190;-85
2022/03/30 07:31:09;;;;;;;;;;;11.20;95.70;;;;;;4302788;33;44911;-85
2022/03/30 07:33:36;;;;;;;;;;;11.30;95.80;;;;;;4302733;33;43385;-85
2022/03/30 07:36:03;;;;;;;;;;;11.30;95.80;;;;;;4301674;33;44625;-85
2022/03/30 07:38:31;;;;;;;;;;;11.30;95.80;;;;;;4289854;33;42905;-85
2022/03/30 07:41:00;;;;;;;;;;;11.30;95.70;;;;;;4290288;33;20390;-85
2022/03/30 07:43:28;;;;;;;;;;;11.30;95.50;;;;;;4301719;33;44334;-85
2022/03/30 07:45:56;;;;;;;;;;;11.30;95.70;;;;;;4302028;33;45373;-85
2022/03/30 07:48:24;;;;;;;;;;;11.30;95.80;;;;;;4302671;33;44586;-85
2022/03/30 07:50:51;;;;;;;;;;;11.30;95.70;;;;;;4302512;33;44229;-85
2022/03/30 07:53:18;;;;;;;;;;;11.30;95.50;;;;;;4301379;33;44320;-85
2022/03/30 07:55:47;;;;;;;;;;;11.30;95.60;;;;;;4289114;33;42464;-85
2022/03/30 07:58:14;;;;;;;;;;;11.20;95.60;;;;;;4302811;33;43345;-85
2022/03/30 08:00:41;;;;;;;;;;;11.30;95.70;;;;;;4301172;33;44057;-85
2022/03/30 08:03:08;;;;;;;;;;;11.30;95.60;;;;;;4301904;33;43057;-85
2022/03/30 08:05:36;;;;;;;;;;;11.30;95.50;;;;;;4289434;33;42326;-85
2022/03/30 08:08:06;;;;;;;;;;;11.30;95.60;;;;;;4301965;33;45218;-85
2022/03/30 08:10:35;;;;;;;;;;;11.30;95.50;;;;;;4300908;33;43945;-85
2022/03/30 08:13:02;;;;;;;;;;;11.30;95.70;;;;;;4302257;33;43921;-85
2022/03/30 08:15:31;;;;;;;;;;;11.30;95.60;;;;;;4302183;33;43951;-85
2022/03/30 08:17:58;;;;;;;;;;;11.30;95.50;;;;;;4301841;33;44089;-85
2022/03/30 08:23:12;;;;;;;;;;;11.20;95.30;;;;;;4302267;33;43917;-85
2022/03/30 08:25:40;;;;;;;;;;;11.20;95.20;;;;;;4302274;33;43565;-85
2022/03/30 08:28:07;;;;;;;;;;;11.20;95.20;;;;;;4301873;33;44551;-85
2022/03/30 08:30:35;;;;;;;;;;;11.20;95.10;;;;;;4301649;33;43808;-85
2022/03/30 08:33:03;;;;;;;;;;;11.20;95.00;;;;;;4300536;33;44054;-85
2022/03/30 08:35:31;;;;;;;;;;;11.20;94.90;;;;;;4288936;33;43194;-85
2022/03/30 08:37:59;;;;;;;;;;;11.20;94.70;;;;;;4301798;33;45852;-84
2022/03/30 08:40:26;;;;;;;;;;;11.20;94.80;;;;;;4289092;33;43518;-84
2022/03/30 08:42:53;;;;;;;;;;;11.20;94.70;;;;;;4288492;33;44627;-85
2022/03/30 08:45:21;;;;;;;;;;;11.20;94.60;;;;;;4288449;33;43517;-84
2022/03/30 08:47:48;;;;;;;;;;;11.20;94.60;;;;;;4288472;33;42700;-85
2022/03/30 08:50:16;;;;;;;;;;;11.20;94.60;;;;;;4300324;33;44245;-85
2022/03/30 08:52:45;;;;;;;;;;;11.20;94.70;;;;;;4288325;33;45736;-85
2022/03/30 08:55:12;;;;;;;;;;;11.20;94.90;;;;;;4288634;33;43165;-85
2022/03/30 08:57:39;;;;;;;;;;;11.20;94.60;;;;;;4300652;33;42705;-85
2022/03/30 09:00:13;;;;;;;;;;;11.20;94.50;;;;;;4288568;33;44794;-85
2022/03/30 09:02:42;;;;;;;;;;;11.20;94.60;;;;;;4288045;33;43853;-85
2022/03/30 09:05:20;;;;;;;;;;;11.20;94.60;;;;;;4288719;33;44239;-85
2022/03/30 09:07:49;;;;;;;;;;;11.20;94.40;;;;;;4300136;33;43478;-85
2022/03/30 09:10:18;;;;;;;;;;;11.20;94.60;;;;;;4301258;33;43509;-85
2022/03/30 09:12:46;;;;;;;;;;;11.20;94.60;;;;;;4288535;33;43666;-85
2022/03/30 09:15:14;;;;;;;;;;;11.20;94.60;;;;;;4301203;33;42631;-85
2022/03/30 09:17:58;;;;;;;;;;;11.20;94.70;;;;;;4301224;33;44033;-84
2022/03/30 09:20:34;;;;;;;;;;;11.30;94.50;;;;;;4289453;33;44748;-84
2022/03/30 09:23:01;;;;;;;;;;;11.30;94.40;;;;;;4300947;33;43406;-85
2022/03/30 09:25:44;;;;;;;;;;;11.30;94.30;;;;;;4301101;33;43888;-85
2022/03/30 09:28:11;;;;;;;;;;;11.30;94.40;;;;;;4301238;33;43115;-84
2022/03/30 09:30:38;;;;;;;;;;;11.30;94.20;;;;;;4301243;33;42711;-84
2022/03/30 09:33:08;;;;;;;;;;;11.30;94.20;;;;;;4301313;33;43342;-84
2022/03/30 09:35:41;;;;;;;;;;;11.30;94.20;;;;;;4301311;33;44124;-84
2022/03/30 09:38:13;;;;;;;;;;;11.30;94.00;;;;;;4301210;33;44007;-84
2022/03/30 09:40:40;;;;;;;;;;;11.30;93.80;;;;;;4288212;33;42869;-85
2022/03/30 09:43:26;;;;;;;;;;;11.30;94.10;;;;;;4288068;33;42514;-84
2022/03/30 09:46:02;;;;;;;;;;;11.30;93.70;;;;;;4288467;33;42708;-85
2022/03/30 09:48:31;;;;;;;;;;;11.30;93.80;;;;;;4302092;33;43289;-84
2022/03/30 09:50:58;;;;;;;;;;;11.30;93.60;;;;;;4303947;33;42775;-84
2022/03/30 09:53:26;;;;;;;;;;;11.30;93.70;;;;;;4291431;33;43368;-85
2022/03/30 09:55:53;;;;;;;;;;;11.30;93.80;;;;;;4303976;33;44165;-84
2022/03/30 09:58:23;;;;;;;;;;;11.30;93.60;;;;;;4291052;33;44107;-84
2022/03/30 10:01:20;;;;;;;;;;;11.30;93.50;;;;;;4303704;33;44326;-85
2022/03/30 10:03:55;;;;;;;;;;;11.30;93.60;;;;;;4290857;33;44006;-84
2022/03/30 10:06:24;;;;;;;;;;;11.30;93.40;;;;;;4302732;33;42961;-84
2022/03/30 10:08:51;;;;;;;;;;;11.20;93.10;;;;;;4303046;33;42450;-84
2022/03/30 10:11:20;;;;;;;;;;;11.30;93.30;;;;;;4302685;33;44353;-85
2022/03/30 10:13:49;;;;;;;;;;;11.20;93.10;;;;;;4302746;33;43148;-84
2022/03/30 10:16:36;;;;;;;;;;;11.20;93.30;;;;;;4292159;33;42691;-84
2022/03/30 10:19:05;;;;;;;;;;;11.30;93.60;;;;;;4303047;33;44024;-84
2022/03/30 10:21:48;;;;;;;;;;;11.30;93.50;;;;;;4302875;33;43066;-84
2022/03/30 10:24:30;;;;;;;;;;;11.30;93.50;;;;;;4303061;33;43927;-84
2022/03/30 10:27:26;;;;;;;;;;;11.30;93.20;;;;;;4290273;33;42974;-84
2022/03/30 10:29:54;;;;;;;;;;;11.30;92.90;;;;;;4289753;33;45500;-84
2022/03/30 10:32:22;;;;;;;;;;;11.30;92.80;;;;;;4302286;33;44140;-84
2022/03/30 10:35:02;;;;;;;;;;;11.30;92.90;;;;;;4302614;33;42351;-84
2022/03/30 10:37:29;;;;;;;;;;;11.30;92.50;;;;;;4289360;33;44315;-84
2022/03/30 10:40:15;;;;;;;;;;;11.30;92.40;;;;;;4289297;33;43135;-84
2022/03/30 10:42:45;;;;;;;;;;;11.30;92.30;;;;;;4302311;33;44440;-83
2022/03/30 10:45:28;;;;;;;;;;;11.30;92.30;;;;;;4289557;33;43769;-84
2022/03/30 10:48:04;;;;;;;;;;;11.40;91.90;;;;;;4289621;33;42388;-84
2022/03/30 10:50:36;;;;;;;;;;;11.40;91.80;;;;;;4289739;33;43288;-84
2022/03/30 10:53:06;;;;;;;;;;;11.40;91.80;;;;;;4302616;33;44248;-84
2022/03/30 10:55:35;;;;;;;;;;;11.40;91.60;;;;;;4302563;33;43327;-84
2022/03/30 10:58:03;;;;;;;;;;;11.40;91.80;;;;;;4302481;33;43300;-83
2022/03/30 11:00:33;;;;;;;;;;;11.40;91.80;;;;;;4302142;33;43938;-84
2022/03/30 11:03:10;;;;;;;;;;;11.40;91.70;;;;;;4302752;33;44273;-84
2022/03/30 11:05:38;;;;;;;;;;;11.40;91.90;;;;;;4303261;33;42658;-83
2022/03/30 11:08:06;;;;;;;;;;;11.40;91.80;;;;;;4302818;33;43033;-84
2022/03/30 11:10:48;;;;;;;;;;;11.40;92.10;;;;;;4290047;33;43351;-84
2022/03/30 11:13:22;;;;;;;;;;;11.50;91.90;;;;;;4303325;33;44063;-84
2022/03/30 11:16:07;;;;;;;;;;;11.50;92.10;;;;;;4303204;33;42988;-84
2022/03/30 11:18:52;;;;;;;;;;;11.50;91.90;;;;;;4302804;33;43877;-84
2022/03/30 11:21:19;;;;;;;;;;;11.50;91.90;;;;;;4301630;33;42808;-84
2022/03/30 11:24:02;;;;;;;;;;;11.50;91.80;;;;;;4289817;33;44933;-83
2022/03/30 11:26:48;;;;;;;;;;;11.60;91.80;;;;;;4302357;33;44083;-84
2022/03/30 11:29:34;;;;;;;;;;;11.60;91.80;;;;;;4302999;33;44834;-84
2022/03/30 11:32:21;;;;;;;;;;;11.60;91.90;;;;;;4289752;33;44617;-83
2022/03/30 11:34:52;;;;;;;;;;;11.60;91.70;;;;;;4302623;33;43738;-84
2022/03/30 11:37:20;;;;;;;;;;;11.60;91.80;;;;;;4301422;33;42873;-84
2022/03/30 11:39:50;;;;;;;;;;;11.70;92.20;;;;;;4302864;33;43901;-84
2022/03/30 11:42:19;;;;;;;;;;;11.70;91.90;;;;;;4302261;33;44574;-83
2022/03/30 11:47:36;;;;;;;;;;;11.70;91.60;;;;;;4302647;33;43726;-83
2022/03/30 11:50:04;;;;;;;;;;;11.70;91.50;;;;;;4289668;33;44744;-84
2022/03/30 11:52:31;;;;;;;;;;;11.80;92.00;;;;;;4302087;33;43279;-84
2022/03/30 11:55:01;;;;;;;;;;;11.80;91.50;;;;;;4289615;33;42827;-83
2022/03/30 11:57:28;;;;;;;;;;;11.80;91.90;;;;;;4289554;33;44026;-84
2022/03/30 11:59:56;;;;;;;;;;;11.80;91.90;;;;;;4289003;33;43302;-84
2022/03/30 12:02:24;;;;;;;;;;;11.90;91.90;;;;;;4288971;33;43928;-84
2022/03/30 12:04:51;;;;;;;;;;;11.90;91.70;;;;;;4289120;33;44231;-84
2022/03/30 12:07:21;;;;;;;;;;;11.90;91.60;;;;;;4289014;33;42455;-84
2022/03/30 12:09:50;;;;;;;;;;;11.90;91.60;;;;;;4289148;33;44540;-84
2022/03/30 12:12:27;;;;;;;;;;;12.00;91.30;;;;;;4300117;33;45807;-84
2022/03/30 12:14:58;;;;;;;;;;;12.00;91.40;;;;;;4289513;33;42551;-84
2022/03/30 12:17:27;;;;;;;;;;;12.00;91.30;;;;;;4300941;33;45984;-84
2022/03/30 12:19:55;;;;;;;;;;;12.00;91.40;;;;;;4302139;33;44164;-83
2022/03/30 12:22:22;;;;;;;;;;;12.00;91.10;;;;;;4302027;33;43977;-83
2022/03/30 12:24:49;;;;;;;;;;;12.10;91.10;;;;;;4302150;33;44115;-84
2022/03/30 12:27:17;;;;;;;;;;;12.10;91.10;;;;;;4301723;33;43935;-84
2022/03/30 12:29:44;;;;;;;;;;;12.10;90.80;;;;;;4301743;33;43787;-83
2022/03/30 12:32:15;;;;;;;;;;;12.10;90.70;;;;;;4301542;33;44322;-84
2022/03/30 12:34:43;;;;;;;;;;;12.10;90.40;;;;;;4289126;33;41751;-84
2022/03/30 12:37:11;;;;;;;;;;;12.10;90.50;;;;;;4288854;33;42715;-84
2022/03/30 12:39:41;;;;;;;;;;;12.10;90.10;;;;;;4288875;33;44726;-84
2022/03/30 12:42:12;;;;;;;;;;;12.20;90.50;;;;;;4288646;33;44749;-84
2022/03/30 12:44:40;;;;;;;;;;;12.10;90.70;;;;;;4289037;33;43238;-83
2022/03/30 12:47:15;;;;;;;;;;;12.20;90.60;;;;;;4289722;33;20061;-84
2022/03/30 12:49:43;;;;;;;;;;;12.20;90.60;;;;;;4288880;33;44474;-84
2022/03/30 12:52:10;;;;;;;;;;;12.20;90.50;;;;;;4288641;33;44604;-84
2022/03/30 12:54:38;;;;;;;;;;;12.20;91.40;;;;;;4288310;33;44895;-84
2022/03/30 12:57:05;;;;;;;;;;;12.30;90.70;;;;;;4288189;33;44818;-84
2022/03/30 12:59:32;;;;;;;;;;;12.30;90.40;;;;;;4301820;33;46208;-84
2022/03/30 13:02:15;;;;;;;;;;;12.30;89.80;;;;;;4300371;33;45688;-84
2022/03/30 13:04:55;;;;;;;;;;;12.30;89.70;;;;;;4288730;33;43288;-84
2022/03/30 13:07:27;;;;;;;;;;;12.40;90.30;;;;;;4300631;33;43108;-84
2022/03/30 13:10:09;;;;;;;;;;;12.40;89.90;;;;;;4288773;33;44341;-84
2022/03/30 13:12:39;;;;;;;;;;;12.40;88.30;;;;;;4288830;33;45492;-84
2022/03/30 13:15:07;;;;;;;;;;;12.50;88.80;;;;;;4301102;33;43820;-84
2022/03/30 13:17:35;;;;;;;;;;;12.40;88.10;;;;;;4289044;33;20017;-84
2022/03/30 13:20:02;;;;;;;;;;;12.50;88.20;;;;;;4288432;33;45304;-84
2022/03/30 13:22:29;;;;;;;;;;;12.50;88.50;;;;;;4300886;33;45015;-85
2022/03/30 13:24:58;;;;;;;;;;;12.50;88.00;;;;;;4288003;33;43707;-85
2022/03/30 13:27:38;;;;;;;;;;;12.50;87.30;;;;;;4301468;33;44094;-85
2022/03/30 13:30:08;;;;;;;;;;;12.50;86.60;;;;;;4301500;33;44716;-84
2022/03/30 13:32:35;;;;;;;;;;;12.50;87.40;;;;;;4287798;33;45794;-84
2022/03/30 13:35:03;;;;;;;;;;;12.60;87.30;;;;;;4300333;33;44224;-84
2022/03/30 13:37:30;;;;;;;;;;;12.50;86.30;;;;;;4288148;33;43423;-84
2022/03/30 13:39:57;;;;;;;;;;;12.60;85.60;;;;;;4300931;33;43349;-83
2022/03/30 13:42:25;;;;;;;;;;;12.60;85.50;;;;;;4288278;33;45094;-84
2022/03/30 13:44:52;;;;;;;;;;;12.60;86.30;;;;;;4288262;33;44687;-84
2022/03/30 13:47:19;;;;;;;;;;;12.60;86.70;;;;;;4299941;33;44066;-84
2022/03/30 13:49:49;;;;;;;;;;;12.60;86.50;;;;;;4287931;33;43755;-85
2022/03/30 13:52:18;;;;;;;;;;;12.70;87.20;;;;;;4300261;33;43240;-84
2022/03/30 13:54:45;;;;;;;;;;;12.70;86.80;;;;;;4300736;33;45737;-84
2022/03/30 13:57:13;;;;;;;;;;;12.70;87.40;;;;;;4299750;33;43028;-84
2022/03/30 13:59:40;;;;;;;;;;;12.70;88.10;;;;;;4301328;33;45494;-84
2022/03/30 14:02:08;;;;;;;;;;;12.70;88.00;;;;;;4285147;33;45853;-84
2022/03/30 14:04:36;;;;;;;;;;;12.70;87.60;;;;;;4285801;33;44871;-84
2022/03/30 14:07:06;;;;;;;;;;;12.80;88.40;;;;;;4285704;33;43012;-84
2022/03/30 14:09:39;;;;;;;;;;;12.80;88.00;;;;;;4285740;33;44958;-84
2022/03/30 14:12:06;;;;;;;;;;;12.80;86.70;;;;;;4285112;33;45371;-84
2022/03/30 14:14:34;;;;;;;;;;;12.80;87.00;;;;;;4285459;33;42975;-85
2022/03/30 14:17:02;;;;;;;;;;;12.80;87.00;;;;;;4285843;33;43104;-84
2022/03/30 14:19:30;;;;;;;;;;;12.80;87.00;;;;;;4287009;33;20439;-84
2022/03/30 14:21:57;;;;;;;;;;;12.80;88.30;;;;;;4285095;33;44623;-85
2022/03/30 14:24:25;;;;;;;;;;;12.80;87.50;;;;;;4285154;33;43367;-84
2022/03/30 14:26:52;;;;;;;;;;;12.80;87.00;;;;;;4286185;33;44112;-84
2022/03/30 14:29:20;;;;;;;;;;;12.80;87.80;;;;;;4285659;33;44764;-84
2022/03/30 14:31:48;;;;;;;;;;;12.90;88.30;;;;;;4286051;33;44917;-84
2022/03/30 14:34:15;;;;;;;;;;;12.90;88.50;;;;;;4286904;33;43285;-85
2022/03/30 14:36:42;;;;;;;;;;;12.90;87.40;;;;;;4288203;33;43851;-84
2022/03/30 14:39:09;;;;;;;;;;;12.90;88.20;;;;;;4288893;33;44218;-84
2022/03/30 14:41:37;;;;;;;;;;;12.90;88.10;;;;;;4288760;33;43493;-84